createdAt,value
2023-01-18T00:01:07.174Z,1.19
2023-01-18T00:03:34.027Z,1.22
2023-01-18T00:06:01.366Z,1.21
2023-01-18T00:08:28.273Z,1.20
2023-01-18T00:10:54.867Z,1.14
2023-01-18T00:13:24.797Z,1.06
2023-01-18T00:15:51.714Z,1.19
2023-01-18T00:18:18.506Z,1.10
2023-01-18T00:20:52.451Z,1.06
2023-01-18T00:23:19.017Z,1.08
2023-01-18T00:25:45.860Z,1.15
2023-01-18T00:28:13.182Z,1.20
2023-01-18T00:30:40.720Z,1.21
2023-01-18T00:33:07.653Z,1.23
2023-01-18T00:35:35.017Z,1.40
2023-01-18T00:38:03.856Z,1.46
2023-01-18T00:40:30.828Z,1.32
2023-01-18T00:42:58.124Z,1.12
2023-01-18T00:45:32.400Z,1.24
2023-01-18T00:48:05.972Z,1.30
2023-01-18T00:50:37.255Z,1.20
2023-01-18T00:53:04.179Z,1.06
2023-01-18T00:55:37.811Z,1.03
2023-01-18T00:58:04.676Z,1.24
2023-01-18T01:00:31.539Z,1.17
2023-01-18T01:02:58.257Z,1.12
2023-01-18T01:05:25.457Z,0.97
2023-01-18T01:07:56.523Z,0.96
2023-01-18T01:10:25.666Z,1.05
2023-01-18T01:12:52.309Z,0.98
2023-01-18T01:15:19.886Z,1.03
2023-01-18T01:17:47.152Z,1.00
2023-01-18T01:20:16.915Z,1.17
2023-01-18T01:22:43.780Z,1.15
2023-01-18T01:25:10.718Z,1.07
2023-01-18T01:27:37.273Z,0.94
2023-01-18T01:30:04.360Z,0.94
2023-01-18T01:32:30.966Z,0.83
2023-01-18T01:34:57.840Z,0.81
2023-01-18T01:37:25.261Z,0.79
2023-01-18T01:39:53.829Z,0.87
2023-01-18T01:42:29.393Z,0.90
2023-01-18T01:45:03.462Z,0.76
2023-01-18T01:47:30.366Z,0.98
2023-01-18T01:49:57.275Z,0.77
2023-01-18T01:52:24.467Z,0.92
2023-01-18T01:54:51.330Z,0.98
2023-01-18T01:57:19.830Z,0.81
2023-01-18T01:59:47.170Z,0.81
2023-01-18T02:02:14.161Z,0.92
2023-01-18T02:04:41.562Z,0.76
2023-01-18T02:07:08.904Z,0.70
2023-01-18T02:09:35.823Z,0.65
2023-01-18T02:12:04.540Z,0.60
2023-01-18T02:14:31.797Z,0.58
2023-01-18T02:17:00.777Z,0.54
2023-01-18T02:19:27.643Z,0.57
2023-01-18T02:21:54.354Z,0.57
2023-01-18T02:24:21.266Z,0.59
2023-01-18T02:26:51.553Z,0.57
2023-01-18T02:29:18.122Z,0.50
2023-01-18T02:31:45.310Z,0.51
2023-01-18T02:34:19.308Z,0.54
2023-01-18T02:36:46.129Z,0.50
2023-01-18T02:39:12.581Z,0.65
2023-01-18T02:41:39.097Z,0.55
2023-01-18T02:44:06.479Z,0.72
2023-01-18T02:46:34.083Z,0.64
2023-01-18T02:49:08.184Z,0.63
2023-01-18T02:51:35.508Z,0.65
2023-01-18T02:54:02.619Z,0.49
2023-01-18T02:56:32.271Z,0.46
2023-01-18T02:58:59.362Z,0.50
2023-01-18T03:01:26.968Z,0.53
2023-01-18T03:03:56.854Z,0.40
2023-01-18T03:06:24.175Z,0.35
2023-01-18T03:08:53.052Z,0.69
2023-01-18T03:11:19.571Z,0.47
2023-01-18T03:13:46.115Z,0.37
2023-01-18T03:16:15.239Z,0.40
2023-01-18T03:18:41.922Z,0.74
2023-01-18T03:21:09.762Z,1.10
2023-01-18T03:23:36.371Z,0.95
2023-01-18T03:26:04.723Z,0.93
2023-01-18T03:28:31.799Z,1.09
2023-01-18T03:30:58.679Z,0.83
2023-01-18T03:33:25.585Z,0.75
2023-01-18T03:35:59.723Z,0.71
2023-01-18T03:38:26.737Z,0.76
2023-01-18T03:40:53.416Z,0.79
2023-01-18T03:43:20.996Z,0.71
2023-01-18T03:45:47.830Z,0.76
2023-01-18T03:48:14.705Z,0.75
2023-01-18T03:53:10.273Z,0.94
2023-01-18T03:55:37.080Z,1.00
2023-01-18T03:58:03.936Z,1.11
2023-01-18T04:00:32.936Z,1.15
2023-01-18T04:03:00.102Z,1.14
2023-01-18T04:05:27.396Z,1.27
2023-01-18T04:07:55.639Z,0.94
2023-01-18T04:10:24.747Z,1.06
2023-01-18T04:12:51.674Z,0.91
2023-01-18T04:15:25.633Z,0.93
2023-01-18T04:17:52.522Z,0.98
2023-01-18T04:20:19.333Z,1.07
2023-01-18T04:22:46.881Z,0.97
2023-01-18T04:25:13.779Z,0.94
2023-01-18T04:27:41.143Z,1.01
2023-01-18T04:30:08.014Z,0.84
2023-01-18T04:32:34.835Z,0.89
2023-01-18T04:35:04.101Z,0.92
2023-01-18T04:37:33.263Z,1.12
2023-01-18T04:40:00.533Z,0.95
2023-01-18T04:42:27.542Z,1.07
2023-01-18T04:45:01.741Z,1.16
2023-01-18T04:47:28.372Z,1.12
2023-01-18T04:49:57.562Z,1.12
2023-01-18T04:52:24.920Z,1.15
2023-01-18T04:54:52.316Z,1.10
2023-01-18T04:57:20.972Z,1.20
2023-01-18T04:59:47.784Z,1.23
2023-01-18T05:02:21.552Z,1.26
2023-01-18T05:04:48.584Z,1.84
2023-01-18T05:07:15.905Z,1.53
2023-01-18T05:09:42.765Z,0.89
2023-01-18T05:31:05.198Z,0.48
2023-01-18T05:33:33.723Z,0.41
2023-01-18T05:36:00.225Z,0.32
2023-01-18T05:38:27.272Z,0.71
2023-01-18T05:40:55.618Z,0.93
2023-01-18T05:49:52.736Z,0.80
2023-01-18T05:52:26.660Z,0.57
2023-01-18T05:54:53.247Z,0.57
2023-01-18T05:57:27.159Z,0.62
2023-01-18T05:59:54.601Z,0.68
2023-01-18T06:02:21.199Z,0.68
2023-01-18T06:04:48.510Z,0.83
2023-01-18T06:07:15.071Z,0.77
2023-01-18T06:09:43.268Z,0.73
2023-01-18T06:12:10.654Z,0.55
2023-01-18T06:14:38.806Z,0.55
2023-01-18T06:17:05.378Z,0.64
2023-01-18T06:19:41.340Z,0.86
2023-01-18T06:22:12.893Z,0.66
2023-01-18T06:24:39.749Z,0.76
2023-01-18T06:27:07.220Z,1.39
2023-01-18T06:29:41.401Z,0.72
2023-01-18T06:32:08.292Z,1.36
2023-01-18T06:34:35.112Z,0.71
2023-01-18T06:37:04.175Z,0.93
2023-01-18T06:39:30.822Z,0.94
2023-01-18T06:41:58.559Z,0.93
2023-01-18T06:44:25.374Z,1.22
2023-01-18T06:46:53.669Z,1.34
2023-01-18T06:49:22.834Z,1.31
2023-01-18T06:51:49.531Z,1.14
2023-01-18T06:54:16.421Z,1.15
2023-01-18T06:56:43.313Z,1.14
2023-01-18T06:59:10.729Z,1.05
2023-01-18T07:01:37.693Z,1.10
2023-01-18T07:04:04.886Z,1.12
2023-01-18T07:06:32.189Z,1.16
2023-01-18T07:08:58.878Z,1.10
2023-01-18T07:11:27.344Z,1.21
2023-01-18T07:13:57.049Z,1.36
2023-01-18T07:16:32.459Z,1.57
2023-01-18T07:18:58.986Z,1.45
2023-01-18T07:24:08.972Z,1.37
2023-01-18T07:26:36.358Z,1.50
2023-01-18T07:29:10.313Z,1.61
2023-01-18T07:31:38.255Z,1.68
2023-01-18T07:34:05.202Z,1.59
2023-01-18T07:36:31.740Z,1.73
2023-01-18T07:38:59.887Z,1.73
2023-01-18T07:41:30.139Z,1.76
2023-01-18T07:43:59.043Z,1.35
2023-01-18T07:46:28.201Z,1.33
2023-01-18T07:48:56.489Z,1.20
2023-01-18T07:51:24.086Z,1.39
2023-01-18T07:53:51.601Z,1.34
2023-01-18T07:56:20.168Z,1.23
2023-01-18T07:58:46.776Z,1.65
2023-01-18T08:01:13.879Z,1.94
2023-01-18T08:03:41.175Z,1.86
2023-01-18T08:06:07.760Z,2.72
2023-01-18T08:08:34.968Z,2.08
2023-01-18T08:11:03.063Z,2.02
2023-01-18T08:13:33.142Z,1.82
2023-01-18T08:16:02.277Z,1.84
2023-01-18T08:18:29.633Z,1.87
2023-01-18T08:21:09.483Z,1.92
2023-01-18T08:26:24.237Z,1.68
2023-01-18T08:28:52.932Z,1.73
2023-01-18T08:31:19.491Z,1.75
2023-01-18T08:33:46.661Z,1.89
2023-01-18T08:36:14.603Z,1.93
2023-01-18T08:38:41.079Z,1.74
2023-01-18T08:41:11.960Z,1.67
2023-01-18T08:43:41.777Z,1.37
2023-01-18T08:46:11.181Z,1.43
2023-01-18T08:48:37.795Z,1.43
2023-01-18T08:51:05.430Z,1.28
2023-01-18T08:53:33.730Z,1.55
2023-01-18T08:56:04.081Z,1.60
2023-01-18T08:58:30.826Z,1.47
2023-01-18T09:00:59.550Z,1.36
2023-01-18T09:03:28.897Z,0.90
2023-01-18T09:05:55.546Z,1.01
2023-01-18T09:08:22.899Z,1.05
2023-01-18T09:13:32.695Z,1.03
2023-01-18T09:16:00.155Z,1.16
2023-01-18T09:18:28.861Z,1.37
2023-01-18T09:20:55.906Z,1.76
2023-01-18T09:23:22.331Z,1.05
2023-01-18T09:25:49.483Z,1.37
2023-01-18T09:28:23.330Z,1.47
2023-01-18T09:30:50.475Z,1.39
2023-01-18T09:33:31.247Z,1.53
2023-01-18T09:36:03.892Z,1.66
2023-01-18T09:38:30.814Z,1.69
2023-01-18T09:40:57.614Z,1.76
2023-01-18T09:43:31.905Z,1.68
2023-01-18T09:46:00.672Z,2.47
2023-01-18T09:48:27.711Z,1.99
2023-01-18T09:50:55.370Z,1.87
2023-01-18T09:53:22.990Z,1.71
2023-01-18T09:55:49.610Z,1.94
2023-01-18T09:58:17.723Z,1.85
2023-01-18T10:00:47.375Z,1.46
2023-01-18T10:03:14.954Z,1.01
2023-01-18T10:05:42.325Z,0.76
2023-01-18T10:08:12.092Z,0.74
2023-01-18T10:10:39.595Z,0.81
2023-01-18T10:13:07.008Z,1.04
2023-01-18T10:15:34.956Z,1.26
2023-01-18T10:18:03.576Z,1.14
2023-01-18T10:20:30.751Z,1.27
2023-01-18T10:23:04.828Z,1.60
2023-01-18T10:25:31.804Z,1.66
2023-01-18T10:28:00.630Z,1.42
2023-01-18T10:30:30.235Z,1.57
2023-01-18T10:32:58.099Z,3.07
2023-01-18T10:35:25.699Z,2.83
2023-01-18T10:37:52.616Z,2.27
2023-01-18T10:40:26.515Z,2.50
2023-01-18T10:46:09.855Z,2.23
2023-01-18T10:48:36.509Z,2.32
2023-01-18T10:51:06.244Z,3.13
2023-01-18T10:53:35.719Z,3.11
2023-01-18T10:56:09.818Z,6.08
2023-01-18T10:58:36.819Z,2.91
2023-01-18T11:01:03.852Z,2.79
2023-01-18T11:03:31.495Z,2.33
2023-01-18T11:05:59.004Z,2.52
2023-01-18T11:08:27.534Z,2.00
2023-01-18T11:10:54.218Z,1.95
2023-01-18T11:13:21.921Z,2.22
2023-01-18T11:15:56.067Z,1.86
2023-01-18T11:18:22.779Z,1.62
2023-01-18T11:20:50.259Z,1.98
2023-01-18T11:23:23.976Z,2.34
2023-01-18T11:28:41.517Z,2.72
2023-01-18T11:31:09.079Z,2.70
2023-01-18T11:33:35.985Z,2.48
2023-01-18T11:36:02.775Z,2.91
2023-01-18T11:38:29.657Z,2.81
2023-01-18T11:40:56.586Z,3.18
2023-01-18T11:43:24.262Z,3.71
2023-01-18T11:45:50.953Z,3.90
2023-01-18T11:48:17.937Z,2.58
2023-01-18T11:50:44.837Z,2.27
2023-01-18T11:53:12.424Z,2.15
2023-01-18T11:55:39.867Z,2.58
2023-01-18T11:58:07.402Z,2.59
2023-01-18T12:00:34.708Z,2.76
2023-01-18T12:03:02.025Z,2.77
2023-01-18T12:05:30.990Z,2.56
2023-01-18T12:07:58.440Z,2.80
2023-01-18T12:10:25.282Z,2.86
2023-01-18T12:12:52.038Z,2.53
2023-01-18T12:15:26.243Z,3.75
2023-01-18T12:18:07.781Z,3.09
2023-01-18T12:20:39.673Z,3.39
2023-01-18T12:23:08.683Z,4.53
2023-01-18T12:25:35.987Z,4.21
2023-01-18T12:28:02.715Z,5.74
2023-01-18T12:30:29.842Z,3.53
2023-01-18T12:32:59.246Z,3.99
2023-01-18T12:35:27.029Z,5.35
2023-01-18T12:37:54.583Z,4.58
2023-01-18T12:40:23.543Z,3.55
2023-01-18T12:42:57.650Z,3.85
2023-01-18T12:45:24.627Z,4.75
2023-01-18T12:47:51.559Z,6.13
2023-01-18T12:50:18.256Z,6.72
2023-01-18T12:52:50.433Z,7.16
2023-01-18T12:55:17.181Z,6.29
2023-01-18T12:57:46.451Z,5.99
2023-01-18T13:00:13.861Z,12.20
2023-01-18T13:02:41.273Z,5.62
2023-01-18T13:05:08.121Z,9.69
2023-01-18T13:07:35.144Z,9.53
2023-01-18T13:10:01.719Z,8.44
2023-01-18T13:12:30.824Z,10.96
2023-01-18T13:14:59.174Z,6.74
2023-01-18T13:17:26.053Z,6.03
2023-01-18T13:19:52.617Z,5.22
2023-01-18T13:22:26.841Z,5.24
2023-01-18T13:24:56.624Z,5.12
2023-01-18T13:27:24.121Z,5.28
2023-01-18T13:29:54.477Z,5.55
2023-01-18T13:32:21.228Z,5.61
2023-01-18T13:34:49.440Z,5.14
2023-01-18T13:37:19.251Z,4.84
2023-01-18T13:39:48.934Z,5.24
2023-01-18T13:44:45.438Z,5.77
2023-01-18T13:47:12.656Z,6.31
2023-01-18T13:49:41.770Z,6.35
2023-01-18T13:52:11.852Z,6.23
2023-01-18T13:54:38.710Z,5.77
2023-01-18T13:57:06.106Z,5.58
2023-01-18T13:59:33.095Z,5.30
2023-01-18T14:01:59.773Z,5.38
2023-01-18T14:04:26.703Z,5.57
2023-01-18T14:06:53.585Z,5.46
2023-01-18T14:09:27.518Z,5.94
2023-01-18T14:12:01.615Z,5.66
2023-01-18T14:14:28.346Z,5.67
2023-01-18T14:16:56.699Z,5.84
2023-01-18T14:19:23.521Z,5.77
2023-01-18T14:21:50.896Z,6.07
2023-01-18T14:24:17.458Z,5.87
2023-01-18T14:26:44.123Z,6.02
2023-01-18T14:29:11.042Z,5.67
2023-01-18T14:31:38.824Z,5.52
2023-01-18T14:34:05.690Z,6.37
2023-01-18T14:36:32.436Z,6.63
2023-01-18T14:38:59.340Z,7.43
2023-01-18T14:41:27.881Z,6.64
2023-01-18T14:46:42.617Z,6.72
2023-01-18T14:49:10.356Z,6.29
2023-01-18T14:51:37.080Z,6.29
2023-01-18T14:54:04.082Z,6.74
2023-01-18T14:56:30.755Z,6.27
2023-01-18T15:02:14.177Z,7.26
2023-01-18T15:04:41.524Z,7.44
2023-01-18T15:07:08.751Z,7.39
2023-01-18T15:09:35.471Z,6.77
2023-01-18T15:12:08.969Z,7.17
2023-01-18T15:14:35.621Z,7.06
2023-01-18T15:17:05.167Z,6.76
2023-01-18T15:19:32.180Z,7.80
2023-01-18T15:21:59.086Z,8.04
2023-01-18T15:24:25.966Z,8.07
2023-01-18T15:26:52.702Z,7.51
2023-01-18T15:29:21.265Z,7.58
2023-01-18T15:31:47.811Z,7.38
2023-01-18T15:34:17.681Z,7.99
2023-01-18T15:36:44.523Z,7.54
2023-01-18T15:39:11.424Z,7.80
2023-01-18T15:41:38.346Z,7.66
2023-01-18T15:47:20.398Z,7.24
2023-01-18T15:49:47.379Z,7.46
2023-01-18T15:52:14.496Z,7.27
2023-01-18T15:57:56.951Z,7.29
2023-01-18T16:00:24.300Z,7.22
2023-01-18T16:02:50.933Z,7.74
2023-01-18T16:05:19.789Z,7.76
2023-01-18T16:07:46.488Z,8.09
2023-01-18T16:10:12.993Z,8.37
2023-01-18T16:12:39.743Z,8.62
2023-01-18T16:15:06.748Z,8.97
2023-01-18T16:17:36.974Z,8.26
2023-01-18T16:20:08.152Z,8.76
2023-01-18T16:22:37.335Z,9.18
2023-01-18T16:25:06.835Z,8.19
2023-01-18T16:27:33.655Z,8.78
2023-01-18T16:30:04.924Z,8.19
2023-01-18T16:32:37.549Z,7.64
2023-01-18T16:35:15.902Z,7.83
2023-01-18T16:37:45.445Z,7.97
2023-01-18T16:40:16.210Z,8.09
2023-01-18T16:42:43.181Z,8.66
2023-01-18T16:45:13.931Z,8.24
2023-01-18T16:47:44.003Z,8.21
2023-01-18T16:50:13.199Z,8.67
2023-01-18T16:52:40.014Z,8.81
2023-01-18T16:55:08.265Z,8.35
2023-01-18T16:57:38.204Z,8.61
2023-01-18T17:00:09.597Z,8.42
2023-01-18T17:02:39.927Z,9.36
2023-01-18T17:05:27.088Z,8.71
2023-01-18T17:07:57.009Z,9.08
2023-01-18T17:10:24.310Z,9.97
2023-01-18T17:12:51.090Z,9.84
2023-01-18T17:15:23.665Z,9.06
2023-01-18T17:17:53.962Z,9.13
2023-01-18T17:20:24.271Z,8.74
2023-01-18T17:22:50.840Z,8.80
2023-01-18T17:25:17.703Z,9.01
2023-01-18T17:27:45.723Z,9.24
2023-01-18T17:30:12.717Z,10.55
2023-01-18T17:32:45.636Z,11.18
2023-01-18T17:35:13.658Z,9.97
2023-01-18T17:37:40.445Z,9.91
2023-01-18T17:40:23.601Z,9.44
2023-01-18T17:43:01.140Z,9.64
2023-01-18T17:45:33.192Z,9.30
2023-01-18T17:50:56.926Z,9.43
2023-01-18T17:53:23.761Z,10.66
2023-01-18T17:59:08.401Z,9.95
2023-01-18T18:01:35.201Z,10.56
2023-01-18T18:04:09.675Z,10.57
2023-01-18T18:06:46.053Z,11.06
2023-01-18T18:09:16.345Z,10.86
2023-01-18T18:11:43.145Z,10.98
2023-01-18T18:14:15.306Z,11.38
2023-01-18T18:19:57.876Z,11.50
2023-01-18T18:22:27.415Z,11.48
2023-01-18T18:24:54.725Z,11.87
2023-01-18T18:27:44.524Z,13.42
2023-01-18T18:30:12.194Z,11.86
2023-01-18T18:32:41.901Z,10.78
2023-01-18T18:35:23.879Z,10.25
2023-01-18T18:37:51.855Z,10.40
2023-01-18T18:40:18.977Z,9.93
2023-01-18T18:43:00.826Z,10.60
2023-01-18T18:45:31.240Z,10.21
2023-01-18T18:48:00.375Z,9.88
2023-01-18T18:50:28.226Z,10.09
2023-01-18T18:52:55.184Z,9.52
2023-01-18T18:58:39.312Z,9.59
2023-01-18T19:01:07.210Z,9.89
2023-01-18T19:03:34.156Z,9.87
2023-01-18T19:06:00.888Z,9.53
2023-01-18T19:08:27.531Z,9.92
2023-01-18T19:10:55.898Z,10.14
2023-01-18T19:13:30.319Z,9.44
2023-01-18T19:15:57.485Z,9.36
2023-01-18T19:18:24.455Z,9.64
2023-01-18T19:20:51.656Z,10.39
2023-01-18T19:23:25.794Z,10.09
2023-01-18T19:25:53.286Z,9.83
2023-01-18T19:28:35.707Z,10.43
2023-01-18T19:31:02.558Z,10.60
2023-01-18T19:36:27.493Z,10.59
2023-01-18T19:38:59.615Z,10.27
2023-01-18T19:41:30.103Z,21.78
2023-01-18T19:47:06.970Z,40.19
2023-01-18T19:49:33.837Z,84.60
2023-01-18T19:52:00.801Z,53.05
2023-01-18T19:54:27.344Z,11.37
2023-01-18T19:56:54.365Z,10.21
2023-01-18T20:01:53.927Z,10.12
2023-01-18T20:04:20.800Z,10.04
2023-01-18T20:06:48.729Z,9.80
2023-01-18T20:09:21.199Z,9.86
2023-01-18T20:11:50.611Z,10.61
2023-01-18T20:17:08.872Z,10.13
2023-01-18T20:19:38.069Z,10.42
2023-01-18T20:22:05.312Z,9.81
2023-01-18T20:24:43.331Z,10.41
2023-01-18T20:27:16.247Z,10.50
2023-01-18T20:29:43.726Z,10.47
2023-01-18T20:32:16.134Z,10.57
2023-01-18T20:34:45.898Z,10.95
2023-01-18T20:37:14.871Z,9.84
2023-01-18T20:39:41.454Z,10.23
2023-01-18T20:42:15.992Z,10.17
2023-01-18T20:44:43.143Z,10.14
2023-01-18T20:47:09.708Z,10.48
2023-01-18T20:52:39.601Z,10.51
2023-01-18T20:55:08.649Z,10.08
2023-01-18T20:57:38.651Z,10.40
2023-01-18T21:06:16.227Z,9.24
2023-01-18T21:08:42.985Z,9.93
2023-01-18T21:11:09.618Z,10.22
2023-01-18T21:13:37.058Z,11.67
2023-01-18T21:16:03.814Z,13.82
2023-01-18T21:18:32.980Z,12.52
2023-01-18T21:21:00.603Z,12.05
2023-01-18T21:23:37.270Z,13.15
2023-01-18T21:26:03.974Z,13.28
2023-01-18T21:28:32.741Z,11.14
2023-01-18T21:30:59.687Z,11.07
2023-01-18T21:33:30.267Z,12.05
2023-01-18T21:35:57.452Z,11.58
2023-01-18T21:38:24.491Z,11.40
2023-01-18T21:40:51.446Z,11.17
2023-01-18T21:43:18.301Z,10.70
2023-01-18T21:45:47.450Z,12.31
2023-01-18T21:48:14.219Z,10.33
2023-01-18T21:50:41.621Z,12.11
2023-01-18T21:53:09.933Z,10.38
2023-01-18T21:55:36.536Z,8.79
2023-01-18T21:58:03.351Z,9.15
2023-01-18T22:00:30.260Z,9.73
2023-01-18T22:02:59.365Z,10.40
2023-01-18T22:05:26.335Z,10.09
2023-01-18T22:07:52.873Z,9.27
2023-01-18T22:10:19.367Z,10.08
2023-01-18T22:12:46.311Z,9.62
2023-01-18T22:15:13.097Z,9.20
2023-01-18T22:17:40.338Z,9.24
2023-01-18T22:20:07.224Z,9.83
2023-01-18T22:22:35.423Z,9.58
2023-01-18T22:25:02.176Z,9.19
2023-01-18T22:27:29.018Z,8.63
2023-01-18T22:29:57.733Z,8.87
2023-01-18T22:32:24.420Z,8.40
2023-01-18T22:34:53.382Z,8.69
2023-01-18T22:37:20.066Z,8.03
2023-01-18T22:39:46.825Z,7.70
2023-01-18T22:42:13.652Z,7.62
2023-01-18T22:44:40.454Z,7.10
2023-01-18T22:47:07.620Z,7.00
2023-01-18T22:49:34.321Z,6.94
2023-01-18T22:52:01.177Z,6.87
2023-01-18T22:54:27.773Z,6.39
2023-01-18T22:56:55.463Z,6.24
2023-01-18T22:59:22.179Z,6.01
2023-01-18T23:01:49.020Z,5.53
2023-01-18T23:04:15.904Z,6.44
2023-01-18T23:06:42.713Z,6.92
2023-01-18T23:09:09.837Z,7.02
2023-01-18T23:11:36.556Z,7.27
2023-01-18T23:14:03.664Z,6.83
2023-01-18T23:16:30.290Z,6.35
2023-01-18T23:18:57.153Z,6.50
2023-01-18T23:21:23.977Z,6.46
2023-01-18T23:23:51.592Z,6.71
2023-01-18T23:26:18.849Z,6.41
2023-01-18T23:28:46.576Z,5.97
2023-01-18T23:31:13.518Z,5.99
2023-01-18T23:33:40.445Z,6.58
2023-01-18T23:36:06.966Z,6.33
2023-01-18T23:38:33.580Z,6.74
2023-01-18T23:41:00.851Z,7.11
2023-01-18T23:43:27.967Z,7.41
2023-01-18T23:45:54.878Z,7.02
2023-01-18T23:48:21.592Z,6.47
2023-01-18T23:50:48.374Z,6.87
2023-01-18T23:53:14.877Z,6.55
2023-01-18T23:55:42.629Z,6.43
2023-01-18T23:58:09.289Z,6.39
